aviador You're here:

UIII Decoded Metar

IRKUTSK in RUSSIA
Report Time2018-05-25 20:30:00
UTC Time2018-05-25 20:42:35
Flight Rules mvfr MVFR
Wind280° at 10 kt
W.Decomp.*RWY 30: 9.6 kt HW 2.8 kt LCW
W.Rank280° ranks 12
Current wind is above 280° avg. (7.2)
Visibility9999 m
Phenomena:Light Shower Rain
Clouds:Broken CB 011 Hf
Expected CloudBase > 400 ft AGL from Temp-Dew spread
Ceiling1,100 ft
Temp05°C (ISA -7)
Dew Point04°C (93% RH)
AAT0.1°C
QNH1014 hPa
Density Alt965 ft
Elevation1,683 ft
Report Wrong Elevation
Raw Report
UIII 252030Z 28005MPS 9999 -SHRA BKN011CB 05/04 Q1014 R30/290150
NOSIG RMK QFE716/0955=

Extra information for UIII:More info

Metar Taf Metar & Taf Last 4 Metars F.Rules Stats Wind Profile Meteogram Temp Stats Airport Information Weather charts Add Link Nearby VenuesMetar ALERT Operation Metar Decoded Social comments